Flight Track Log - Related Links

Times and Time Zones

All times are in EDT time to prevent confusion due to time zone crossing. See the DAL268 flight status page for this flight to view local times or setup timezone preferences in your user account.

Time Position Orientation Groundspeed Altitude Reporting Facility
EDT Latitude Longitude Course Direction KTS MPH feet Rate Location/Type
Sat 02:25:44 PM 37.6170 -122.3740 38° Northeast 150 173  Level FlightAware ADS-B
Sat 02:25:54 PM 37.6244 -122.3690 28° Northeast 171 197 1,429 Level FlightAware ADS-B
Sat 02:26:05 PM 37.6311 -122.3640 31° Northeast 162 186 500 2,308 Climbing FlightAware ADS-B
Sat 02:26:20 PM 37.6400 -122.3540 42° Northeast 178 205 1,000 1,600 Climbing FlightAware ADS-B
Sat 02:26:35 PM 37.6485 -122.3420 48° Northeast 203 234 1,300 1,548 Climbing FlightAware ADS-B
Sat 02:26:51 PM 37.6591 -122.3260 50° Northeast 222 255 1,800 2,250 Climbing FlightAware ADS-B
Sat 02:27:07 PM 37.6706 -122.3100 48° Northeast 232 267 2,500 2,438 Climbing FlightAware ADS-B
Sat 02:27:23 PM 37.6824 -122.2940 47° Northeast 246 283 3,100 2,438 Climbing FlightAware ADS-B
Sat 02:27:39 PM 37.6947 -122.2760 49° Northeast 256 295 3,800 2,727 Climbing FlightAware ADS-B
Sat 02:27:56 PM 37.7084 -122.2570 48° Northeast 262 302 4,600 2,939 Climbing FlightAware ADS-B
Sat 02:28:28 PM 37.7367 -122.2180 47° Northeast 280 322 6,200 3,209 Climbing FlightAware ADS-B
Sat 02:28:39 PM 37.7465 -122.2080 39° Northeast 271 312 6,900 3,484 Climbing FlightAware ADS-B
Sat 02:28:59 PM 37.7667 -122.1890 37° Northeast 272 313 8,000 2,743 Climbing FlightAware ADS-B
Sat 02:29:14 PM 37.7831 -122.1740 36° Northeast 285 328 8,500 2,118 Climbing FlightAware ADS-B
Sat 02:29:33 PM 37.8025 -122.1550 38° Northeast 295 339 9,200 2,667 Climbing FlightAware ADS-B
Sat 02:29:41 PM 37.8120 -122.1460 37° Northeast 295 339 9,700 3,150 Climbing FlightAware ADS-B
Sat 02:30:13 PM 37.8478 -122.1130 36° Northeast 297 342 11,300 2,156 Climbing FlightAware ADS-B
Sat 02:30:45 PM 37.8842 -122.0790 36° Northeast 330 380 12,000 1,333 Climbing FlightAware ADS-B
Sat 02:31:16 PM 37.9246 -122.0420 36° Northeast 363 418 12,700 1,574 Climbing FlightAware ADS-B
Sat 02:31:46 PM 37.9663 -122.0020 37° Northeast 379 436 13,600 1,967 Climbing FlightAware ADS-B
Sat 02:32:17 PM 38.0109 -121.9600 37° Northeast 392 451 14,700 2,000 Climbing FlightAware ADS-B
Sat 02:33:07 PM 38.0860 -121.8900 36° Northeast 411 473 16,300 2,000 Climbing FlightAware ADS-B
Sat 02:33:41 PM 38.1380 -121.8410 37° Northeast 418 481 17,500 2,057 Climbing FlightAware ADS-B
Sat 02:34:17 PM 38.1950 -121.7870 37° Northeast 426 490 18,700 2,028 Climbing FlightAware ADS-B
Sat 02:34:52 PM 38.2500 -121.7350 37° Northeast 433 498 19,900 1,826 Climbing FlightAware ADS-B
Sat 02:35:26 PM 38.3050 -121.6830 37° Northeast 442 509 20,800 1,629 Climbing FlightAware ADS-B
Sat 02:36:02 PM 38.3650 -121.6260 37° Northeast 453 521 21,800 1,417 Climbing FlightAware ADS-B
Sat 02:36:38 PM 38.4260 -121.5660 38° Northeast 469 540 22,500 1,304 Climbing FlightAware ADS-B
Sat 02:37:11 PM 38.4740 -121.5000 47° Northeast 478 550 23,300 1,543 Climbing FlightAware ADS-B
Sat 02:37:48 PM 38.5250 -121.4130 53° Northeast 486 559 24,300 1,606 Climbing FlightAware ADS-B
Sat 02:38:22 PM 38.5700 -121.3350 54° Northeast 487 560 25,200 1,826 Climbing FlightAware ADS-B
Sat 02:38:57 PM 38.6160 -121.2560 53° Northeast 484 557 26,400 1,750 Climbing FlightAware ADS-B
Sat 02:39:34 PM 38.6660 -121.1690 54° Northeast 487 560 27,300 1,371 Climbing FlightAware ADS-B
Sat 02:40:07 PM 38.7100 -121.0940 53° Northeast 492 566 28,000 1,219 Climbing FlightAware ADS-B
Sat 02:40:38 PM 38.7530 -121.0190 54° Northeast 495 570 28,600 1,437 Climbing FlightAware ADS-B
Sat 02:41:18 PM 38.8070 -120.9240 54° Northeast 492 566 29,700 1,500 Climbing FlightAware ADS-B
Sat 02:41:50 PM 38.8500 -120.8500 53° Northeast 492 566 30,400 1,478 Climbing FlightAware ADS-B
Sat 02:42:27 PM 38.8990 -120.7650 53° Northeast 487 560 31,400 1,658 Climbing FlightAware ADS-B
Sat 02:43:06 PM 38.9522 -120.6744 53° Northeast 482 555 32,500 1,652 Climbing FlightAware ADS-B
Sat 02:43:36 PM 38.9899 -120.6091 53° Northeast 479 551 33,300 1,400 Climbing FlightAware ADS-B
Sat 02:44:06 PM 39.0306 -120.5385 53° Northeast 477 549 33,900 1,200 Climbing FlightAware ADS-B
Sat 02:44:41 PM 39.0737 -120.4634 53° Northeast 475 547 34,600 1,015 Climbing FlightAware ADS-B
Sat 02:45:11 PM 39.1149 -120.3915 54° Northeast 475 547 35,000 316 Climbing FlightAware ADS-B
Sat 02:45:57 PM 39.1756 -120.2853 54° Northeast 471 542 35,000  Level FlightAware ADS-B
Sat 02:46:37 PM 39.2268 -120.1956 54° Northeast 473 544 35,000  Level FlightAware ADS-B
Sat 02:47:09 PM 39.2660 -120.1266 54° Northeast 476 548 35,000  Level FlightAware ADS-B
Sat 02:47:39 PM 39.3059 -120.0562 54° Northeast 478 550 35,000  Level FlightAware ADS-B
Sat 02:48:09 PM 39.3463 -119.9847 54° Northeast 479 551 35,000  Level FlightAware ADS-B
Sat 02:48:39 PM 39.3855 -119.9152 54° Northeast 481 554 35,000  Level FlightAware ADS-B
Sat 02:49:09 PM 39.4252 -119.8448 54° Northeast 482 555 35,000  Level FlightAware ADS-B
Sat 02:49:53 PM 39.4822 -119.7435 54° Northeast 484 557 35,000  Level FlightAware ADS-B
Sat 02:50:23 PM 39.5222 -119.6720 54° Northeast 483 556 35,000  Level FlightAware ADS-B
Sat 02:50:53 PM 39.5612 -119.6024 54° Northeast 481 554 35,000  Level FlightAware ADS-B
Sat 02:51:23 PM 39.5994 -119.5339 54° Northeast 480 552 35,000  Level FlightAware ADS-B
Sat 02:51:53 PM 39.6394 -119.4622 54° Northeast 479 551 35,000  Level FlightAware ADS-B
Sat 02:52:25 PM 39.6806 -119.3881 54° Northeast 479 551 35,000  Level FlightAware ADS-B
Sat 02:52:55 PM 39.7191 -119.3188 54° Northeast 478 550 35,000  Level FlightAware ADS-B
Sat 02:53:37 PM 39.7736 -119.2204 54° Northeast 477 549 35,000  Level FlightAware ADS-B
Sat 02:54:07 PM 39.8123 -119.1500 54° Northeast 477 549 35,000  Level FlightAware ADS-B
Sat 02:54:38 PM 39.8516 -119.0789 54° Northeast 477 549 35,000  Level FlightAware ADS-B
Sat 02:55:11 PM 39.8926 -119.0043 54° Northeast 475 547 35,000  Level FlightAware ADS-B
Sat 02:55:41 PM 39.9325 -118.9313 54° Northeast 476 548 35,000  Level FlightAware ADS-B
Sat 02:56:11 PM 39.9697 -118.8635 54° Northeast 476 548 35,000  Level FlightAware ADS-B
Sat 02:56:49 PM 40.0176 -118.7757 55° Northeast 476 548 35,000  Level FlightAware ADS-B
Sat 02:57:19 PM 40.0564 -118.7042 55° Northeast 476 548 35,000  Level FlightAware ADS-B
Sat 02:57:49 PM 40.0948 -118.6336 55° Northeast 476 548 35,000  Level FlightAware ADS-B
Sat 02:58:23 PM 40.1320 -118.5480 60° Northeast 481 554 35,000  Level FlightAware ADS-B
Sat 02:58:53 PM 40.1563 -118.4676 68° East 482 555 35,000  Level FlightAware ADS-B
Sat 02:59:27 PM 40.1810 -118.3780 70° East 482 555 35,000  Level FlightAware ADS-B
Sat 02:59:51 PM 40.1992 -118.3104 71° East 482 555 35,000  Level FlightAware ADS-B
Sat 03:00:21 PM 40.2220 -118.2263 70° East 481 554 35,000  Level FlightAware ADS-B
Sat 03:00:53 PM 40.2444 -118.1434 70° East 482 555 35,000  Level FlightAware ADS-B
Sat 03:01:23 PM 40.2681 -118.0559 70° East 482 555 35,000  Level FlightAware ADS-B
Sat 03:02:02 PM 40.2964 -117.9516 70° East 482 555 35,000  Level FlightAware ADS-B
Sat 03:02:32 PM 40.3178 -117.8723 70° East 481 554 35,000  Level FlightAware ADS-B
Sat 03:03:37 PM 40.3470 -117.7760 68° East 481 554 35,000  Level FlightAware ADS-B
Sat 03:04:13 PM 40.3700 -117.6920 70° East 481 554 35,000  Level FlightAware ADS-B
Sat 03:04:32 PM 40.4059 -117.5436 72° East 482 555 35,000  Level FlightAware ADS-B
Sat 03:05:26 PM 40.4180 -117.5220 54° Northeast 481 554 35,000  Level FlightAware ADS-B
Sat 03:06:02 PM 40.4410 -117.4380 70° East 481 554 35,000  Level FlightAware ADS-B
Sat 03:06:38 PM 40.4640 -117.3540 70° East 481 554 35,000  Level FlightAware ADS-B
Sat 03:07:14 PM 40.4870 -117.2690 70° East 481 554 35,000  Level FlightAware ADS-B
Sat 03:07:51 PM 40.5110 -117.1830 70° East 481 554 35,000  Level FlightAware ADS-B
Sat 03:08:28 PM 40.5350 -117.0960 70° East 481 554 35,000  Level FlightAware ADS-B
Sat 03:09:04 PM 40.5580 -117.0120 70° East 481 554 35,000  Level FlightAware ADS-B
Sat 03:09:40 PM 40.5820 -116.9280 69° East 481 554 35,000  Level FlightAware ADS-B
Sat 03:12:53 PM 40.7748 -116.1600 71° East 480 552 35,000  Level FlightAware ADS-B
Sat 03:13:24 PM 40.7972 -116.0760 71° East 481 554 35,000  Level FlightAware ADS-B
Sat 03:13:56 PM 40.8210 -115.9860 71° East 481 554 35,000  Level FlightAware ADS-B
Sat 03:14:36 PM 40.8497 -115.8770 71° East 482 555 35,000  Level FlightAware ADS-B
Sat 03:15:07 PM 40.8728 -115.7890 71° East 481 554 35,000  Level FlightAware ADS-B
Sat 03:15:54 PM 40.9065 -115.6600 71° East 481 554 35,000  Level FlightAware ADS-B
Sat 03:16:27 PM 40.9302 -115.5690 71° East 481 554 35,000  Level FlightAware ADS-B
Sat 03:16:58 PM 40.9529 -115.4810 71° East 480 552 35,000  Level FlightAware ADS-B
Sat 03:18:07 PM 41.0022 -115.2900 71° East 480 552 35,000  Level FlightAware ADS-B
Sat 03:18:39 PM 41.0248 -115.2020 71° East 480 552 35,000  Level FlightAware ADS-B
Sat 03:19:09 PM 41.0463 -115.1170 71° East 480 552 35,000  Level FlightAware ADS-B
Sat 03:19:40 PM 41.0678 -115.0330 71° East 480 552 35,000  Level FlightAware ADS-B
Sat 03:20:10 PM 41.0891 -114.9490 71° East 480 552 35,000  Level FlightAware ADS-B
Sat 03:20:41 PM 41.1109 -114.8620 72° East 481 554 35,000  Level FlightAware ADS-B
Sat 03:21:11 PM 41.1321 -114.7780 71° East 480 552 35,000  Level FlightAware ADS-B
Sat 03:21:43 PM 41.1544 -114.6890 72° East 480 552 35,000  Level FlightAware ADS-B
Sat 03:22:22 PM 41.1813 -114.5810 72° East 481 554 35,000  Level FlightAware ADS-B
Sat 03:22:52 PM 41.2024 -114.4970 72° East 482 555 35,000  Level FlightAware ADS-B
Sat 03:23:22 PM 41.2232 -114.4130 72° East 482 555 35,000  Level FlightAware ADS-B
Sat 03:23:53 PM 41.2443 -114.3270 72° East 482 555 35,000  Level FlightAware ADS-B
Sat 03:24:23 PM 41.2651 -114.2430 72° East 481 554 35,000  Level FlightAware ADS-B
Sat 03:24:56 PM 41.2878 -114.1500 72° East 483 556 35,000  Level FlightAware ADS-B
Sat 03:25:26 PM 41.3085 -114.0650 72° East 482 555 35,000  Level FlightAware ADS-B
Sat 03:25:57 PM 41.3294 -113.9790 72° East 482 555 35,000  Level FlightAware ADS-B
Sat 03:26:24 PM 41.3481 -113.9010 72° East 484 557 35,000  Level FlightAware ADS-B
Sat 03:26:38 PM 41.3558 -113.8639 74° East 485 558 35,000  Level FlightAware ADS-B
Sat 03:26:43 PM 41.3587 -113.8470 77° East 485 558 35,000  Level FlightAware ADS-B
Sat 03:26:57 PM 41.3643 -113.8060 80° East 487 560 35,000  Level FlightAware ADS-B
Sat 03:27:27 PM 41.3719 -113.7170 83° East 488 562 35,000  Level FlightAware ADS-B
Sat 03:27:40 PM 41.3743 -113.6809 85° East 488 562 35,000  Level FlightAware ADS-B
Sat 03:27:58 PM 41.3780 -113.6240 85° East 488 562 35,000  Level FlightAware ADS-B
Sat 03:28:11 PM 41.3804 -113.5869 85° East 488 562 35,000  Level FlightAware ADS-B
Sat 03:28:37 PM 41.3853 -113.5080 85° East 488 562 35,000  Level FlightAware ADS-B
Sat 03:29:01 PM 41.3897 -113.4383 85° East 488 562 35,000  Level FlightAware ADS-B
Sat 03:29:09 PM 41.3913 -113.4130 85° East 488 562 35,000  Level FlightAware ADS-B
Sat 03:29:39 PM 41.3971 -113.3210 85° East 489 563 35,000  Level FlightAware ADS-B
Sat 03:29:44 PM 41.3973 -113.3179 85° East 489 563 35,000  Level FlightAware ADS-B
Sat 03:30:13 PM 41.4034 -113.2210 85° East 489 563 35,000  Level FlightAware ADS-B
Sat 03:30:43 PM 41.4091 -113.1310 85° East 489 563 35,000  Level FlightAware ADS-B
Sat 03:31:15 PM 41.4150 -113.0370 85° East 489 563 35,000  Level FlightAware ADS-B
Sat 03:31:17 PM 41.4153 -113.0318 86° East 489 563 35,000  Level FlightAware ADS-B
Sat 03:31:47 PM 41.4208 -112.9410 85° East 488 562 35,000  Level FlightAware ADS-B
Sat 03:31:57 PM 41.4225 -112.9138 85° East 488 562 35,000  Level FlightAware ADS-B
Sat 03:32:19 PM 41.4267 -112.8430 85° East 487 560 35,000  Level FlightAware ADS-B
Sat 03:32:27 PM 41.4280 -112.8219 85° East 488 562 35,000  Level FlightAware ADS-B
Sat 03:32:50 PM 41.4321 -112.7520 85° East 487 560 35,000  Level FlightAware ADS-B
Sat 03:33:03 PM 41.4337 -112.7250 86° East 487 560 35,000  Level FlightAware ADS-B
Sat 03:33:20 PM 41.4374 -112.6610 86° East 486 559 35,000  Level FlightAware ADS-B
Sat 03:33:33 PM 41.4395 -112.6245 86° East 485 558 35,000  Level FlightAware ADS-B
Sat 03:33:53 PM 41.4429 -112.5640 86° East 485 558 35,000  Level FlightAware ADS-B
Sat 03:34:03 PM 41.4434 -112.5567 85° East 485 558 35,000  Level FlightAware ADS-B
Sat 03:34:29 PM 41.4489 -112.4580 86° East 484 557 35,000  Level FlightAware ADS-B
Sat 03:35:00 PM 41.4541 -112.3650 86° East 484 557 35,000  Level FlightAware ADS-B
Sat 03:35:03 PM 41.4545 -112.3581 86° East 484 557 35,000  Level FlightAware ADS-B
Sat 03:35:33 PM 41.4594 -112.2680 86° East 483 556 35,000  Level FlightAware ADS-B
Sat 03:36:05 PM 41.4645 -112.1730 86° East 482 555 35,000  Level FlightAware ADS-B
Sat 03:36:09 PM 41.4651 -112.1631 85° East 482 555 35,000  Level FlightAware ADS-B
Sat 03:36:35 PM 41.4693 -112.0840 86° East 481 554 35,000  Level FlightAware ADS-B
Sat 03:37:06 PM 41.4741 -111.9930 86° East 482 555 35,000  Level FlightAware ADS-B
Sat 03:37:07 PM 41.4741 -111.9929 100° East 481 554 35,000  Level FlightAware ADS-B
Sat 03:37:37 PM 41.4788 -111.9017 86° East 481 554 35,000  Level FlightAware ADS-B
Sat 03:38:07 PM 41.4833 -111.8130 86° East 481 554 35,000  Level FlightAware ADS-B
Sat 03:38:11 PM 41.4838 -111.8037 86° East 481 554 35,000  Level FlightAware ADS-B
Sat 03:38:48 PM 41.4893 -111.6930 86° East 481 554 35,000  Level FlightAware ADS-B
Sat 03:39:18 PM 41.4937 -111.6030 86° East 480 552 35,000  Level FlightAware ADS-B
Sat 03:39:48 PM 41.4980 -111.5150 86° East 480 552 35,000  Level FlightAware ADS-B
Sat 03:40:17 PM 41.5020 -111.4310 86° East 480 552 35,000  Level FlightAware ADS-B
Sat 03:40:19 PM 41.5023 -111.4240 86° East 480 552 35,000  Level FlightAware ADS-B
Sat 03:40:49 PM 41.5064 -111.3350 86° East 480 552 35,000  Level FlightAware ADS-B
Sat 03:41:20 PM 41.5106 -111.2450 86° East 479 551 35,000  Level FlightAware ADS-B
Sat 03:41:50 PM 41.5146 -111.1560 87° East 479 551 35,000  Level FlightAware ADS-B
Sat 03:42:21 PM 41.5186 -111.0650 87° East 480 552 35,000  Level FlightAware ADS-B
Sat 03:43:03 PM 41.5239 -110.9420 87° East 479 551 35,000  Level FlightAware ADS-B
Sat 03:43:34 PM 41.5278 -110.8500 87° East 479 551 35,000  Level FlightAware ADS-B
Sat 03:44:41 PM 41.5360 -110.6540 87° East 478 550 35,000  Level FlightAware ADS-B
Sat 03:45:17 PM 41.5400 -110.5480 87° East 478 550 35,000  Level FlightAware ADS-B
Sat 03:45:49 PM 41.5440 -110.4540 87° East 478 550 35,000  Level FlightAware ADS-B
Sat 03:46:25 PM 41.5480 -110.3470 87° East 479 551 35,000  Level FlightAware ADS-B
Sat 03:46:59 PM 41.5510 -110.2500 88° East 479 551 35,000  Level FlightAware ADS-B
Sat 03:47:36 PM 41.5550 -110.1570 87° East 479 551 35,000  Level FlightAware ADS-B
Sat 03:48:12 PM 41.5590 -110.0660 87° East 479 551 35,000  Level FlightAware ADS-B
Sat 03:48:48 PM 41.5620 -109.9760 87° East 479 551 35,000  Level FlightAware ADS-B
Sat 03:49:19 PM 41.5660 -109.8380 88° East 477 549 35,000  Level FlightAware ADS-B
Sat 03:49:57 PM 41.5690 -109.7310 88° East 477 549 35,000  Level FlightAware ADS-B
Sat 03:50:28 PM 41.5720 -109.6350 88° East 477 549 35,000  Level FlightAware ADS-B
Sat 03:51:03 PM 41.5760 -109.5340 87° East 478 550 35,000  Level FlightAware ADS-B
Sat 03:51:41 PM 41.5790 -109.4200 88° East 479 551 35,000  Level FlightAware ADS-B
Sat 03:52:17 PM 41.5820 -109.3150 88° East 480 552 35,000  Level FlightAware ADS-B
Sat 03:52:50 PM 41.5850 -109.2170 88° East 480 552 35,000  Level FlightAware ADS-B
Sat 03:53:27 PM 41.5880 -109.1090 88° East 481 554 35,000  Level FlightAware ADS-B
Sat 03:53:58 PM 41.5910 -109.0160 87° East 480 552 35,000  Level FlightAware ADS-B
Sat 03:54:33 PM 41.5980 -108.9120 85° East 479 551 35,000  Level FlightAware ADS-B
Sat 03:55:11 PM 41.6070 -108.8020 84° East 479 551 35,000  Level FlightAware ADS-B
Sat 03:55:47 PM 41.6150 -108.6960 84° East 477 549 35,000  Level FlightAware ADS-B
Sat 03:56:22 PM 41.6230 -108.5920 84° East 479 551 35,000  Level FlightAware ADS-B
Sat 03:56:55 PM 41.6300 -108.4960 84° East 480 552 35,000  Level FlightAware ADS-B
Sat 03:57:29 PM 41.6380 -108.3980 84° East 481 554 35,000  Level FlightAware ADS-B
Sat 03:58:02 PM 41.6450 -108.2970 85° East 481 554 35,000  Level FlightAware ADS-B
Sat 03:58:39 PM 41.6530 -108.1900 84° East 479 551 35,000  Level FlightAware ADS-B
Sat 03:59:17 PM 41.6610 -108.0790 84° East 477 549 35,000  Level FlightAware ADS-B
Sat 03:59:53 PM 41.6680 -107.9710 85° East 477 549 35,000  Level FlightAware ADS-B
Sat 04:00:24 PM 41.6750 -107.8790 84° East 477 549 35,000  Level FlightAware ADS-B
Sat 04:00:56 PM 41.6810 -107.7880 85° East 475 547 35,000  Level FlightAware ADS-B
Sat 04:01:54 PM 41.6920 -107.6310 85° East 475 547 35,000  Level FlightAware ADS-B
Sat 04:02:31 PM 41.7000 -107.5110 85° East 473 544 35,000  Level FlightAware ADS-B
Sat 04:03:12 PM 41.7070 -107.4100 85° East 473 544 35,000  Level FlightAware ADS-B
Sat 04:03:50 PM 41.7150 -107.2800 85° East 474 545 35,000  Level FlightAware ADS-B
Sat 04:04:28 PM 41.7210 -107.1850 85° East 474 545 35,000  Level FlightAware ADS-B
Sat 04:05:02 PM 41.7260 -107.1000 85° East 474 545 35,000  Level FlightAware ADS-B
Sat 04:05:38 PM 41.7320 -107.0110 85° East 474 545 35,000  Level FlightAware ADS-B
Sat 04:06:14 PM 41.7380 -106.9210 85° East 474 545 35,000  Level FlightAware ADS-B
Sat 04:06:51 PM 41.7440 -106.8290 85° East 474 545 35,000  Level FlightAware ADS-B
Sat 04:07:28 PM 41.7500 -106.7370 85° East 474 545 35,000  Level FlightAware ADS-B
Sat 04:08:04 PM 41.7560 -106.6470 85° East 474 545 35,000  Level FlightAware ADS-B
Sat 04:08:39 PM 41.7660 -106.4280 86° East 481 554 35,000  Level FlightAware ADS-B
Sat 04:09:18 PM 41.7720 -106.3110 86° East 483 556 35,000  Level FlightAware ADS-B
Sat 04:09:50 PM 41.7780 -106.2160 85° East 483 556 35,000  Level FlightAware ADS-B
Sat 04:10:28 PM 41.7840 -106.1040 86° East 484 557 35,000  Level FlightAware ADS-B
Sat 04:11:04 PM 41.7900 -105.9940 86° East 484 557 35,000  Level FlightAware ADS-B
Sat 04:11:38 PM 41.7950 -105.8960 86° East 485 558 35,000  Level FlightAware ADS-B
Sat 04:12:13 PM 41.8000 -105.7910 86° East 483 556 35,000  Level FlightAware ADS-B
Sat 04:13:09 PM 41.8080 -105.6400 86° East 484 557 35,000  Level FlightAware ADS-B
Sat 04:13:51 PM 41.8140 -105.5020 87° East 484 557 35,000  Level FlightAware ADS-B
Sat 04:14:26 PM 41.8200 -105.3930 86° East 485 558 35,000  Level FlightAware ADS-B
Sat 04:15:02 PM 41.8250 -105.2830 86° East 486 559 35,000  Level FlightAware ADS-B
Sat 04:15:36 PM 41.8290 -105.1830 87° East 488 562 35,000  Level FlightAware ADS-B
Sat 04:16:14 PM 41.8350 -105.0680 86° East 490 564 35,000  Level FlightAware ADS-B
Sat 04:16:46 PM 41.8390 -104.9690 87° East 488 562 35,000  Level FlightAware ADS-B
Sat 04:17:21 PM 41.8430 -104.8630 87° East 488 562 35,000  Level FlightAware ADS-B
Sat 04:17:58 PM 41.8480 -104.7530 86° East 487 560 35,000  Level FlightAware ADS-B
Sat 04:18:30 PM 41.8520 -104.6550 87° East 486 559 35,000  Level FlightAware ADS-B
Sat 04:19:06 PM 41.8560 -104.5500 87° East 486 559 35,000  Level FlightAware ADS-B
Sat 04:19:42 PM 41.8610 -104.4420 86° East 486 559 35,000  Level FlightAware ADS-B
Sat 04:20:19 PM 41.8650 -104.3300 87° East 485 558 35,000  Level FlightAware ADS-B
Sat 04:20:49 PM 41.8690 -104.2380 87° East 485 558 35,000  Level FlightAware ADS-B
Sat 04:21:26 PM 41.8730 -104.1280 87° East 485 558 35,000  Level FlightAware ADS-B
Sat 04:22:02 PM 41.8760 -104.0190 88° East 485 558 35,000  Level FlightAware ADS-B
Sat 04:22:33 PM 41.8800 -103.9270 87° East 486 559 35,000  Level FlightAware ADS-B
Sat 04:23:10 PM 41.8830 -103.8170 88° East 486 559 35,000  Level FlightAware ADS-B
Sat 04:23:52 PM 41.8880 -103.7100 86° East 486 559 35,000  Level FlightAware ADS-B
Sat 04:24:30 PM 41.8910 -103.5790 88° East 484 557 35,000  Level FlightAware ADS-B
Sat 04:25:12 PM 41.8990 -103.4580 85° East 481 554 35,000  Level FlightAware ADS-B
Sat 04:25:53 PM 41.9100 -103.3500 82° East 481 554 35,000  Level FlightAware ADS-B
Sat 04:26:29 PM 41.9190 -103.2600 82° East 481 554 35,000  Level FlightAware ADS-B
Sat 04:27:06 PM 41.9290 -103.1660 82° East 481 554 35,000  Level FlightAware ADS-B
Sat 04:27:42 PM 41.9390 -103.0760 81° East 481 554 35,000  Level FlightAware ADS-B
Sat 04:28:18 PM 41.9480 -102.9850 82° East 481 554 35,000  Level FlightAware ADS-B
Sat 04:28:54 PM 41.9570 -102.8950 82° East 481 554 35,000  Level FlightAware ADS-B
Sat 04:29:30 PM 41.9670 -102.8040 82° East 481 554 35,000  Level FlightAware ADS-B
Sat 04:30:06 PM 41.9760 -102.7130 82° East 481 554 35,000  Level FlightAware ADS-B
Sat 04:30:42 PM 41.9860 -102.6220 82° East 481 554 35,000  Level FlightAware ADS-B
Sat 04:31:18 PM 41.9950 -102.5320 82° East 481 554 35,000  Level FlightAware ADS-B
Sat 04:31:54 PM 42.0050 -102.4410 82° East 481 554 35,000  Level FlightAware ADS-B
Sat 04:32:30 PM 42.0140 -102.3500 82° East 481 554 35,000  Level FlightAware ADS-B
Sat 04:33:06 PM 42.0240 -102.2590 82° East 481 554 35,000  Level FlightAware ADS-B
Sat 04:33:42 PM 42.0330 -102.1690 82° East 481 554 35,000  Level FlightAware ADS-B
Sat 04:34:18 PM 42.0430 -102.0780 82° East 481 554 35,000  Level FlightAware ADS-B
Sat 04:34:55 PM 42.0520 -101.9840 83° East 481 554 35,000 1,250 Level FlightAware ADS-B
Sat 04:35:54 PM 42.1567 -101.5317 83° East 518 596 37,000 992 Climbing Minneapolis Center
Sat 04:36:56 PM 42.1853 -101.3042 80° East 517 595 37,000  Level Minneapolis Center
Sat 04:37:58 PM 42.2075 -101.1133 81° East 516 594 37,000  Level Minneapolis Center
Sat 04:38:59 PM 42.2283 -100.9228 82° East 515 593 37,000  Level Minneapolis Center
Sat 04:40:01 PM 42.2503 -100.7319 81° East 515 593 37,000  Level Minneapolis Center
Sat 04:41:03 PM 42.2722 -100.5386 81° East 518 596 37,000  Level Minneapolis Center
Sat 04:42:05 PM 42.2947 -100.3422 81° East 526 605 37,000  Level Minneapolis Center
Sat 04:43:07 PM 42.3172 -100.1456 81° East 528 608 37,000  Level Minneapolis Center
Sat 04:44:08 PM 42.3389 -99.9464 82° East 532 612 37,000  Level Minneapolis Center
Sat 04:45:10 PM 42.3656 -99.7061 81° East 536 617 37,000  Level Minneapolis Center
Sat 04:46:12 PM 42.3875 -99.5050 82° East 538 619 37,000  Level Minneapolis Center
Sat 04:47:14 PM 42.4083 -99.3003 82° East 543 625 37,000  Level Minneapolis Center
Sat 04:48:16 PM 42.4294 -99.0983 82° East 543 625 37,000  Level Minneapolis Center
Sat 04:49:17 PM 42.4497 -98.8967 82° East 541 623 37,000  Level Minneapolis Center
Sat 04:50:19 PM 42.4697 -98.6928 82° East 543 625 37,000  Level Minneapolis Center
Sat 04:55:54 PM 42.5240 -97.5290 82° East 535 616 37,000  Level FlightAware ADS-B
Sat 04:56:29 PM 42.5290 -97.4100 87° East 534 615 37,000  Level FlightAware ADS-B
Sat 04:57:04 PM 42.5330 -97.2970 87° East 533 613 37,000  Level FlightAware ADS-B
Sat 04:57:37 PM 42.5380 -97.1810 87° East 534 615 37,000  Level FlightAware ADS-B
Sat 04:58:14 PM 42.5420 -97.0590 87° East 533 613 37,000  Level FlightAware ADS-B
Sat 04:58:51 PM 42.5470 -96.9350 87° East 533 613 37,000  Level FlightAware ADS-B
Sat 04:59:23 PM 42.5510 -96.8280 87° East 532 612 37,000  Level FlightAware ADS-B
Sat 04:59:59 PM 42.5550 -96.7090 87° East 532 612 37,000  Level FlightAware ADS-B
Sat 05:00:35 PM 42.5590 -96.5890 87° East 532 612 37,000  Level FlightAware ADS-B
Sat 05:01:07 PM 42.5620 -96.4810 88° East 531 611 37,000  Level FlightAware ADS-B
Sat 05:01:45 PM 42.5660 -96.3570 87° East 532 612 37,000  Level FlightAware ADS-B
Sat 05:02:17 PM 42.5690 -96.2500 88° East 532 612 37,000  Level FlightAware ADS-B
Sat 05:02:55 PM 42.5730 -96.1220 88° East 531 611 37,000  Level FlightAware ADS-B
Sat 05:03:31 PM 42.5770 -96.0040 87° East 529 609 37,000  Level FlightAware ADS-B
Sat 05:04:03 PM 42.5790 -95.8980 88° East 528 608 37,000  Level FlightAware ADS-B
Sat 05:04:40 PM 42.5830 -95.7780 87° East 527 606 37,000  Level FlightAware ADS-B
Sat 05:05:13 PM 42.5850 -95.6710 89° East 526 605 37,000  Level FlightAware ADS-B
Sat 05:05:53 PM 42.5890 -95.5350 88° East 526 605 37,000  Level FlightAware ADS-B
Sat 05:06:25 PM 42.5910 -95.4310 88° East 526 605 37,000  Level FlightAware ADS-B
Sat 05:06:57 PM 42.5930 -95.3230 89° East 527 606 37,000  Level FlightAware ADS-B
Sat 05:07:35 PM 42.5960 -95.1980 88° East 528 608 37,000  Level FlightAware ADS-B
Sat 05:08:05 PM 42.5979 -95.1008 88° East 529 609 37,000  Level FlightAware ADS-B (LPVM)
Sat 05:08:36 PM 42.5999 -94.9975 88° East 529 609 37,000  Level FlightAware ADS-B (LPVM)
Sat 05:09:08 PM 42.6020 -94.8905 89° East 530 610 37,000  Level FlightAware ADS-B (LPVM)
Sat 05:09:42 PM 42.6039 -94.7785 89° East 530 610 37,000  Level FlightAware ADS-B (LPVM)
Sat 05:10:33 PM 42.6070 -94.6120 88° East 530 610 37,000  Level FlightAware ADS-B
Sat 05:10:46 PM 42.6072 -94.5751 90° East 530 610 37,000  Level FlightAware ADS-B (LPVM)
Sat 05:11:31 PM 42.6095 -94.4161 89° East 530 610 37,000  Level FlightAware ADS-B (LPVM)
Sat 05:12:03 PM 42.6109 -94.3116 89° East 530 610 37,000  Level FlightAware ADS-B (LPVM)
Sat 05:12:53 PM 42.6126 -94.1448 89° East 529 609 37,000  Level FlightAware ADS-B (LPVM)
Sat 05:13:10 PM 42.6130 -94.0905 89° East 529 609 37,000  Level FlightAware ADS-B
Sat 05:13:23 PM 42.6133 -94.0548 89° East 529 609 37,000  Level FlightAware ADS-B (LPVM)
Sat 05:14:04 PM 42.6140 -93.9110 90° East 529 609 37,000  Level FlightAware ADS-B
Sat 05:14:41 PM 42.6150 -93.7870 89° East 528 608 37,000  Level FlightAware ADS-B
Sat 05:15:13 PM 42.6150 -93.6820 90° East 528 608 37,000 364 Level FlightAware ADS-B
Sat 05:15:47 PM 42.6160 -93.5710 89° East 529 609 37,400 1,000 Climbing FlightAware ADS-B
Sat 05:16:25 PM 42.6160 -93.4440 90° East 526 605 38,200 1,135 Climbing FlightAware ADS-B
Sat 05:17:01 PM 42.6170 -93.3250 89° East 524 603 38,800 941 Climbing FlightAware ADS-B
Sat 05:17:16 PM 42.6167 -93.2751 91° East 524 603 39,000 160 Climbing FlightAware ADS-B (LPVM)
Sat 05:18:16 PM 42.6170 -93.0800 90° East 519 597 39,000  Level FlightAware ADS-B
Sat 05:18:20 PM 42.6167 -93.0673 92° East 518 596 39,000  Level FlightAware ADS-B (LPVM)
Sat 05:18:52 PM 42.6170 -92.9710 90° East 517 595 39,000  Level FlightAware ADS-B
Sat 05:19:28 PM 42.6160 -92.8480 91° East 518 596 39,000  Level FlightAware ADS-B
Sat 05:20:00 PM 42.6160 -92.7440 90° East 519 597 39,000  Level FlightAware ADS-B
Sat 05:20:12 PM 42.6157 -92.7035 90° East 519 597 39,000  Level FlightAware ADS-B (LPVM)
Sat 05:20:55 PM 42.6151 -92.5658 90° East 521 600 39,000  Level FlightAware ADS-B (LPVM)
Sat 05:21:44 PM 42.6141 -92.4030 90° East 522 601 39,000  Level FlightAware ADS-B (LPVM)
Sat 05:22:15 PM 42.6135 -92.3086 91° East 523 602 39,000  Level FlightAware ADS-B (LPVM)
Sat 05:22:50 PM 42.6125 -92.1897 91° East 524 603 39,000  Level FlightAware ADS-B (LPVM)
Sat 05:23:34 PM 42.6110 -92.0440 91° East 526 605 39,000  Level FlightAware ADS-B
Sat 05:24:06 PM 42.6100 -91.9420 91° East 526 605 39,000  Level FlightAware ADS-B
Sat 05:24:15 PM 42.6102 -91.9505 272° West 526 605 39,000  Level FlightAware ADS-B (LPVM)
Sat 05:25:06 PM 42.6078 -91.7401 91° East 527 606 39,000  Level FlightAware ADS-B (LPVM)
Sat 05:25:47 PM 42.6061 -91.6115 91° East 528 608 39,000  Level FlightAware ADS-B (LPVM)
Sat 05:26:25 PM 42.6042 -91.4792 91° East 527 606 39,000  Level FlightAware ADS-B (LPVM)
Sat 05:26:56 PM 42.6030 -91.4000 91° East 527 606 39,000  Level FlightAware ADS-B (LPVM)
Sat 05:27:32 PM 42.6010 -91.2695 91° East 526 605 39,000  Level FlightAware ADS-B (LPVM)
Sat 05:28:06 PM 42.5989 -91.1490 91° East 526 605 39,000  Level FlightAware ADS-B (LPVM)
Sat 05:28:37 PM 42.5971 -91.0464 91° East 526 605 39,000  Level FlightAware ADS-B (LPVM)
Sat 05:29:16 PM 42.5947 -90.9223 91° East 525 604 39,000  Level FlightAware ADS-B (LPVM)
Sat 05:29:56 PM 42.5920 -90.7880 92° East 523 602 39,000  Level FlightAware ADS-B
Sat 05:30:33 PM 42.5890 -90.6660 92° East 522 601 39,000  Level FlightAware ADS-B
Sat 05:31:08 PM 42.5870 -90.5530 91° East 521 600 39,000  Level FlightAware ADS-B
Sat 05:31:40 PM 42.5840 -90.4480 92° East 521 600 39,000  Level FlightAware ADS-B
Sat 05:32:12 PM 42.5820 -90.3440 91° East 520 598 39,000  Level FlightAware ADS-B
Sat 05:32:52 PM 42.5790 -90.2150 92° East 520 598 39,000  Level FlightAware ADS-B
Sat 05:33:29 PM 42.5750 -90.0950 93° East 519 597 39,000  Level FlightAware ADS-B
Sat 05:34:00 PM 42.5730 -89.9930 91° East 517 595 39,000  Level FlightAware ADS-B
Sat 05:34:37 PM 42.5690 -89.8720 93° East 516 594 39,000  Level FlightAware ADS-B
Sat 05:35:10 PM 42.5660 -89.7670 92° East 515 593 39,000  Level FlightAware ADS-B
Sat 05:35:47 PM 42.5630 -89.6500 92° East 515 593 39,000  Level FlightAware ADS-B
Sat 05:36:19 PM 42.5590 -89.5440 93° East 514 592 39,000  Level FlightAware ADS-B
Sat 05:36:58 PM 42.5550 -89.4190 92° East 513 590 39,000  Level FlightAware ADS-B
Sat 05:37:31 PM 42.5520 -89.3150 92° East 512 589 39,000  Level FlightAware ADS-B
Sat 05:38:06 PM 42.5480 -89.2030 93° East 512 589 39,000  Level FlightAware ADS-B
Sat 05:38:42 PM 42.5440 -89.0870 93° East 511 588 39,000  Level FlightAware ADS-B
Sat 05:39:17 PM 42.5400 -88.9770 93° East 509 586 39,000  Level FlightAware ADS-B
Sat 05:39:49 PM 42.5360 -88.8740 93° East 509 586 39,000  Level FlightAware ADS-B
Sat 05:40:28 PM 42.5320 -88.7530 93° East 509 586 39,000  Level FlightAware ADS-B
Sat 05:41:03 PM 42.5270 -88.6400 93° East 508 585 39,000  Level FlightAware ADS-B
Sat 05:41:36 PM 42.5230 -88.5340 93° East 507 583 39,000  Level FlightAware ADS-B
Sat 05:42:12 PM 42.5180 -88.4210 93° East 506 582 39,000  Level FlightAware ADS-B
Sat 05:42:45 PM 42.5140 -88.3180 93° East 506 582 39,000  Level FlightAware ADS-B
Sat 05:43:20 PM 42.5090 -88.2060 93° East 507 583 39,000  Level FlightAware ADS-B
Sat 05:43:57 PM 42.5040 -88.0900 93° East 506 582 39,000  Level FlightAware ADS-B
Sat 05:44:32 PM 42.5010 -87.9800 92° East 507 583 39,000  Level FlightAware ADS-B
Sat 05:45:08 PM 42.5000 -87.8650 91° East 506 582 39,000  Level FlightAware ADS-B
Sat 05:45:43 PM 42.5000 -87.7550 90° East 505 581 39,000  Level FlightAware ADS-B
Sat 05:46:18 PM 42.4990 -87.6450 91° East 503 579 39,000  Level FlightAware ADS-B
Sat 05:46:50 PM 42.4990 -87.5430 90° East 503 579 39,000  Level FlightAware ADS-B
Sat 05:47:24 PM 42.4990 -87.4380 90° East 502 578 39,000  Level FlightAware ADS-B
Sat 05:48:01 PM 42.4980 -87.3230 91° East 501 577 39,000  Level FlightAware ADS-B
Sat 05:48:39 PM 42.4970 -87.2020 91° East 500 575 39,000  Level FlightAware ADS-B
Sat 05:49:11 PM 42.4970 -87.1030 90° East 498 573 39,000  Level FlightAware ADS-B
Sat 05:49:47 PM 42.4960 -86.9880 91° East 496 571 39,000  Level FlightAware ADS-B
Sat 05:50:21 PM 42.4950 -86.8830 91° East 494 568 39,000  Level FlightAware ADS-B
Sat 05:50:55 PM 42.4940 -86.7840 91° East 492 566 39,000  Level FlightAware ADS-B
Sat 05:51:31 PM 42.4930 -86.6690 91° East 490 564 39,000  Level FlightAware ADS-B
Sat 05:52:07 PM 42.4910 -86.5660 91° East 488 562 39,000  Level FlightAware ADS-B
Sat 05:52:43 PM 42.4900 -86.4530 91° East 487 560 39,000  Level FlightAware ADS-B
Sat 05:53:15 PM 42.4890 -86.3580 91° East 486 559 39,000  Level FlightAware ADS-B
Sat 05:53:51 PM 42.4870 -86.2490 91° East 485 558 39,000  Level FlightAware ADS-B
Sat 05:54:27 PM 42.4860 -86.1420 91° East 485 558 39,000  Level FlightAware ADS-B
Sat 05:55:09 PM 42.4830 -86.0100 92° East 484 557 39,000  Level FlightAware ADS-B
Sat 05:55:45 PM 42.4810 -85.9060 91° East 483 556 39,000  Level FlightAware ADS-B
Sat 05:56:19 PM 42.4800 -85.7990 91° East 483 556 39,000  Level FlightAware ADS-B
Sat 05:56:53 PM 42.4780 -85.6960 91° East 482 555 39,000  Level FlightAware ADS-B
Sat 05:57:27 PM 42.4760 -85.5970 92° East 481 554 39,000  Level FlightAware ADS-B
Sat 05:58:04 PM 42.4730 -85.4870 92° East 478 550 39,000  Level FlightAware ADS-B
Sat 05:58:41 PM 42.4710 -85.3760 91° East 477 549 39,000  Level FlightAware ADS-B
Sat 05:59:11 PM 42.4690 -85.2870 92° East 475 547 39,000  Level FlightAware ADS-B
Sat 05:59:45 PM 42.4660 -85.1840 92° East 474 545 39,000  Level FlightAware ADS-B
Sat 06:00:21 PM 42.4640 -85.0820 91° East 474 545 39,000  Level FlightAware ADS-B
Sat 06:00:57 PM 42.4610 -84.9720 92° East 472 543 39,000  Level FlightAware ADS-B
Sat 06:01:33 PM 42.4580 -84.8640 92° East 473 544 39,000  Level FlightAware ADS-B
Sat 06:02:08 PM 42.4540 -84.7660 93° East 475 547 39,000  Level FlightAware ADS-B
Sat 06:02:41 PM 42.4480 -84.6640 95° East 476 548 39,000  Level FlightAware ADS-B
Sat 06:03:18 PM 42.4410 -84.5550 95° East 479 551 39,000  Level FlightAware ADS-B
Sat 06:03:55 PM 42.4350 -84.4420 94° East 481 554 39,000  Level FlightAware ADS-B
Sat 06:04:32 PM 42.4280 -84.3330 95° East 484 557 39,000  Level FlightAware ADS-B
Sat 06:05:12 PM 42.4210 -84.2130 94° East 487 560 39,000  Level FlightAware ADS-B
Sat 06:05:44 PM 42.4160 -84.1140 94° East 489 563 39,000  Level FlightAware ADS-B
Sat 06:06:21 PM 42.4090 -84.0000 95° East 490 564 39,000  Level FlightAware ADS-B
Sat 06:06:57 PM 42.4020 -83.8890 95° East 490 564 39,000  Level FlightAware ADS-B
Sat 06:07:33 PM 42.3950 -83.7800 95° East 489 563 39,000  Level FlightAware ADS-B
Sat 06:08:05 PM 42.3890 -83.6830 95° East 489 563 39,000  Level FlightAware ADS-B
Sat 06:08:41 PM 42.3820 -83.5730 95° East 489 563 39,000  Level FlightAware ADS-B
Sat 06:09:17 PM 42.3750 -83.4620 95° East 488 562 39,000  Level FlightAware ADS-B
Sat 06:09:53 PM 42.3680 -83.3550 95° East 487 560 39,000  Level FlightAware ADS-B
Sat 06:10:25 PM 42.3610 -83.2570 95° East 485 558 39,000  Level FlightAware ADS-B
Sat 06:11:01 PM 42.3540 -83.1500 95° East 483 556 39,000  Level FlightAware ADS-B
Sat 06:11:39 PM 42.3470 -83.0530 96° East 480 552 39,000  Level FlightAware ADS-B
Sat 06:12:09 PM 42.3410 -82.9630 95° East 477 549 39,000  Level FlightAware ADS-B
Sat 06:12:47 PM 42.3320 -82.8340 95° East 474 545 39,000  Level FlightAware ADS-B
Sat 06:13:23 PM 42.3240 -82.7300 96° East 471 542 39,000  Level FlightAware ADS-B
Sat 06:13:59 PM 42.3160 -82.6250 96° East 467 537 39,000  Level FlightAware ADS-B
Sat 06:14:31 PM 42.3100 -82.5350 95° East 465 535 39,000  Level FlightAware ADS-B
Sat 06:15:05 PM 42.3030 -82.4360 95° East 462 532 39,000  Level FlightAware ADS-B
Sat 06:15:43 PM 42.2940 -82.3270 96° East 461 531 39,000  Level FlightAware ADS-B
Sat 06:16:19 PM 42.2860 -82.2240 96° East 460 529 39,000 176 Level FlightAware ADS-B
Sat 06:16:51 PM 42.2790 -82.1310 96° East 465 535 39,200 618 Climbing FlightAware ADS-B
Sat 06:17:27 PM 42.2710 -82.0280 96° East 463 533 39,700 943 Climbing FlightAware ADS-B
Sat 06:18:01 PM 42.2630 -81.9290 96° East 458 527 40,300 985 Climbing FlightAware ADS-B
Sat 06:18:34 PM 42.2560 -81.8380 96° East 456 525 40,800 600 Climbing FlightAware ADS-B
Sat 06:19:11 PM 42.2480 -81.7340 96° East 453 521 41,000 162 Climbing FlightAware ADS-B
Sat 06:19:48 PM 42.2390 -81.6300 97° East 450 518 41,000  Level FlightAware ADS-B
Sat 06:20:24 PM 42.2310 -81.5280 96° East 450 518 41,000  Level FlightAware ADS-B
Sat 06:20:55 PM 42.2240 -81.4430 96° East 450 518 41,000  Level FlightAware ADS-B
Sat 06:21:30 PM 42.2160 -81.3460 96° East 451 519 41,000  Level FlightAware ADS-B
Sat 06:22:08 PM 42.2070 -81.2410 97° East 452 520 41,000  Level FlightAware ADS-B
Sat 06:22:44 PM 42.1980 -81.1390 97° East 454 522 41,000  Level FlightAware ADS-B
Sat 06:23:14 PM 42.1900 -81.0530 97° East 456 525 41,000  Level FlightAware ADS-B
Sat 06:23:53 PM 42.1810 -80.9450 96° East 457 526 41,000  Level FlightAware ADS-B
Sat 06:24:28 PM 42.1720 -80.8450 97° East 459 528 41,000  Level FlightAware ADS-B
Sat 06:25:01 PM 42.1640 -80.7520 97° East 460 529 41,000  Level FlightAware ADS-B
Sat 06:25:37 PM 42.1540 -80.6490 97° East 461 531 41,000  Level FlightAware ADS-B
Sat 06:26:12 PM 42.1450 -80.5510 97° East 460 529 41,000  Level FlightAware ADS-B
Sat 06:26:49 PM 42.1360 -80.4460 97° East 460 529 41,000  Level FlightAware ADS-B
Sat 06:27:23 PM 42.1270 -80.3480 97° East 460 529 41,000  Level FlightAware ADS-B
Sat 06:27:58 PM 42.1170 -80.2480 98° East 460 529 41,000  Level FlightAware ADS-B
Sat 06:28:31 PM 42.1090 -80.1560 97° East 460 529 41,000  Level FlightAware ADS-B
Sat 06:29:05 PM 42.0990 -80.0580 98° East 459 528 41,000  Level FlightAware ADS-B
Sat 06:29:43 PM 42.0890 -79.9560 97° East 458 527 41,000  Level FlightAware ADS-B
Sat 06:30:19 PM 42.0790 -79.8510 97° East 456 525 41,000  Level FlightAware ADS-B
Sat 06:30:51 PM 42.0700 -79.7600 98° East 455 524 41,000  Level FlightAware ADS-B
Sat 06:31:27 PM 42.0600 -79.6630 98° East 454 522 41,000  Level FlightAware ADS-B
Sat 06:32:00 PM 42.0510 -79.5670 97° East 454 522 41,000  Level FlightAware ADS-B
Sat 06:32:37 PM 42.0410 -79.4650 97° East 452 520 41,000  Level FlightAware ADS-B
Sat 06:33:10 PM 42.0320 -79.3810 98° East 452 520 41,000  Level FlightAware ADS-B
Sat 06:33:47 PM 42.0210 -79.2740 98° East 451 519 41,000  Level FlightAware ADS-B
Sat 06:34:23 PM 42.0100 -79.1730 98° East 450 518 41,000  Level FlightAware ADS-B
Sat 06:34:59 PM 42.0000 -79.0750 98° East 450 518 41,000  Level FlightAware ADS-B
Sat 06:35:31 PM 41.9910 -78.9870 98° East 450 518 41,000  Level FlightAware ADS-B
Sat 06:36:06 PM 41.9810 -78.8930 98° East 450 518 41,000  Level FlightAware ADS-B
Sat 06:36:44 PM 41.9690 -78.7820 98° East 450 518 41,000  Level FlightAware ADS-B
Sat 06:37:21 PM 41.9580 -78.6780 98° East 450 518 41,000  Level FlightAware ADS-B
Sat 06:38:00 PM 41.9460 -78.5720 99° East 450 518 41,000  Level FlightAware ADS-B
Sat 06:38:36 PM 41.9360 -78.4800 98° East 449 517 41,000  Level FlightAware ADS-B
Sat 06:39:10 PM 41.9250 -78.3830 99° East 450 518 41,000  Level FlightAware ADS-B
Sat 06:39:44 PM 41.9150 -78.2860 98° East 450 518 41,000  Level FlightAware ADS-B
Sat 06:40:20 PM 41.9030 -78.1860 99° East 450 518 41,000  Level FlightAware ADS-B
Sat 06:40:56 PM 41.8920 -78.0880 99° East 450 518 41,000  Level FlightAware ADS-B
Sat 06:41:32 PM 41.8810 -77.9880 98° East 450 518 41,000  Level FlightAware ADS-B
Sat 06:42:04 PM 41.8700 -77.8990 99° East 452 520 41,000  Level FlightAware ADS-B
Sat 06:42:40 PM 41.8510 -77.8010 105° East 460 529 41,000  Level FlightAware ADS-B
Sat 06:43:13 PM 41.8290 -77.7140 109° East 462 532 41,000  Level FlightAware ADS-B
Sat 06:43:48 PM 41.8040 -77.6220 110° East 462 532 41,000  Level FlightAware ADS-B
Sat 06:44:24 PM 41.7770 -77.5200 110° East 460 529 41,000  Level FlightAware ADS-B
Sat 06:45:00 PM 41.7520 -77.4260 110° East 460 529 41,000  Level FlightAware ADS-B
Sat 06:45:34 PM 41.7280 -77.3340 109° East 459 528 41,000  Level FlightAware ADS-B
Sat 06:46:10 PM 41.7020 -77.2390 110° East 458 527 41,000  Level FlightAware ADS-B
Sat 06:46:46 PM 41.6770 -77.1430 109° East 458 527 41,000  Level FlightAware ADS-B
Sat 06:47:22 PM 41.6500 -77.0460 110° East 459 528 41,000  Level FlightAware ADS-B
Sat 06:47:54 PM 41.6280 -76.9620 109° East 459 528 41,000  Level FlightAware ADS-B
Sat 06:48:30 PM 41.6010 -76.8660 111° Southeast 458 527 41,000  Level FlightAware ADS-B
Sat 06:49:06 PM 41.5760 -76.7720 110° East 458 527 41,000  Level FlightAware ADS-B
Sat 06:49:42 PM 41.5500 -76.6790 110° East 456 525 41,000  Level FlightAware ADS-B
Sat 06:50:22 PM 41.5210 -76.5720 110° East 454 522 41,000  Level FlightAware ADS-B
Sat 06:50:56 PM 41.4950 -76.4800 111° Southeast 454 522 41,000  Level FlightAware ADS-B
Sat 06:51:34 PM 41.4700 -76.3890 110° East 452 520 41,000 -176 Level FlightAware ADS-B
Sat 06:52:04 PM 41.4500 -76.3160 110° East 450 518 40,800 -1,385 Descending FlightAware ADS-B
Sat 06:52:39 PM 41.4240 -76.2260 111° Southeast 452 520 39,500 -2,314 Descending FlightAware ADS-B
Sat 06:53:14 PM 41.3980 -76.1320 110° East 452 520 38,100 -2,400 Descending FlightAware ADS-B
Sat 06:53:54 PM 41.3680 -76.0250 110° East 450 518 36,500 -2,550 Descending FlightAware ADS-B
Sat 06:54:34 PM 41.3390 -75.9210 110° East 450 518 34,700 -2,720 Descending FlightAware ADS-B
Sat 06:55:09 PM 41.3150 -75.8360 111° Southeast 451 519 33,100 -3,195 Descending FlightAware ADS-B
Sat 06:55:51 PM 41.2790 -75.7130 111° Southeast 455 524 30,600 -3,474 Descending FlightAware ADS-B
Sat 06:56:25 PM 41.2520 -75.6250 112° Southeast 460 529 28,700 -3,353 Descending FlightAware ADS-B
Sat 06:56:59 PM 41.2230 -75.5380 114° Southeast 460 529 26,800 -3,000 Descending FlightAware ADS-B
Sat 06:57:37 PM 41.1900 -75.4420 115° Southeast 447 514 25,100 -2,676 Descending FlightAware ADS-B
Sat 06:58:13 PM 41.1600 -75.3520 114° Southeast 438 504 23,500 -1,881 Descending FlightAware ADS-B
Sat 06:58:44 PM 41.1350 -75.2790 114° Southeast 439 505 23,000 -462 Descending FlightAware ADS-B
Sat 06:59:18 PM 41.1060 -75.1930 114° Southeast 439 505 23,000 -169 Level FlightAware ADS-B
Sat 06:59:55 PM 41.0770 -75.1060 114° Southeast 432 497 22,800 -405 Descending FlightAware ADS-B
Sat 07:00:32 PM 41.0470 -75.0180 114° Southeast 422 486 22,500 -600 Descending FlightAware ADS-B
Sat 07:01:05 PM 41.0190 -74.9370 115° Southeast 437 503 22,100 -716 Descending FlightAware ADS-B
Sat 07:01:39 PM 40.9950 -74.8500 110° East 424 488 21,700 -583 Descending FlightAware ADS-B
Sat 07:02:17 PM 40.9830 -74.7580 100° East 406 467 21,400 -514 Descending FlightAware ADS-B
Sat 07:02:49 PM 40.9750 -74.6770 97° East 419 482 21,100 -462 Descending FlightAware ADS-B
Sat 07:03:22 PM 40.9670 -74.6000 98° East 400 460 20,900 -568 Descending FlightAware ADS-B
Sat 07:04:03 PM 40.9560 -74.4990 98° East 408 470 20,400 -1,233 Descending FlightAware ADS-B
Sat 07:04:35 PM 40.9470 -74.4190 98° East 402 463 19,400 -1,235 Descending FlightAware ADS-B
Sat 07:05:11 PM 40.9368 -74.3285 98° East 401 461 19,000 -343 Descending FlightAware ADS-B
Sat 07:05:45 PM 40.9279 -74.2497 98° East 373 429 19,000  Level FlightAware ADS-B
Sat 07:06:21 PM 40.9190 -74.1750 99° East 333 383 19,000  Level FlightAware ADS-B
Sat 07:06:31 PM 40.9167 -74.1553 99° East 329 379 19,000 -818 Level FlightAware ADS-B
Sat 07:06:43 PM 40.9106 -74.1316 109° East 329 379 18,700 -1,714 Descending FlightAware ADS-B
Sat 07:07:13 PM 40.8889 -74.0784 118° Southeast 328 377 17,800 -1,672 Descending FlightAware ADS-B
Sat 07:07:44 PM 40.8670 -74.0249 118° Southeast 323 372 17,000 -1,548 Descending FlightAware ADS-B
Sat 07:08:15 PM 40.8453 -73.9710 118° Southeast 318 366 16,200 -1,529 Descending FlightAware ADS-B
Sat 07:08:35 PM 40.8313 -73.9370 119° Southeast 322 371 15,700 -1,588 Descending FlightAware ADS-B (KSNC)
Sat 07:08:49 PM 40.8218 -73.9135 118° Southeast 315 362 15,300 -1,463 Descending FlightAware ADS-B
Sat 07:09:16 PM 40.8030 -73.8672 118° Southeast 310 357 14,700 -1,437 Descending FlightAware ADS-B (KSNC)
Sat 07:10:00 PM 40.7767 -73.8030 118° Southeast 303 349 13,600 -1,469 Descending FlightAware ADS-B (KSNC)
Sat 07:10:05 PM 40.7707 -73.7882 118° Southeast 314 361 13,500 -1,571 Descending FlightAware ADS-B
Sat 07:10:42 PM 40.7400 -73.7350 127° Southeast 304 350 12,500 -1,625 Descending FlightAware ADS-B
Sat 07:10:53 PM 40.7250 -73.7270 158° South 306 352 12,200 -2,667 Descending FlightAware ADS-B
Sat 07:11:00 PM 40.7155 -73.7238 166° South 306 352 11,700 -1,808 Descending FlightAware ADS-B (KSNC)
Sat 07:12:06 PM 40.6260 -73.7030 170° South 295 339 10,000 -1,624 Descending FlightAware ADS-B
Sat 07:12:25 PM 40.6000 -73.6960 168° South 289 333 9,400 -2,000 Descending FlightAware ADS-B
Sat 07:12:33 PM 40.5900 -73.6940 171° South 290 334 9,100 -1,714 Descending FlightAware ADS-B
Sat 07:12:53 PM 40.5650 -73.7030 195° South 288 331 8,600 -1,655 Descending FlightAware ADS-B
Sat 07:13:02 PM 40.5550 -73.7140 220° Southwest 291 335 8,300 -1,846 Descending FlightAware ADS-B
Sat 07:13:06 PM 40.5510 -73.7200 229° Southwest 292 336 8,200 -1,091 Descending FlightAware ADS-B
Sat 07:13:13 PM 40.5470 -73.7290 240° Southwest 293 337 8,100 -1,200 Descending FlightAware ADS-B
Sat 07:13:21 PM 40.5440 -73.7420 253° West 296 341 7,900 -1,714 Descending FlightAware ADS-B
Sat 07:13:41 PM 40.5370 -73.7760 255° West 295 339 7,300 -1,929 Descending FlightAware ADS-B
Sat 07:13:49 PM 40.5300 -73.7900 237° Southwest 291 335 7,000 -1,600 Descending FlightAware ADS-B
Sat 07:13:56 PM 40.5230 -73.7980 221° Southwest 287 330 6,900 -1,565 Descending FlightAware ADS-B
Sat 07:14:12 PM 40.5040 -73.8090 204° Southwest 279 321 6,400 -1,800 Descending FlightAware ADS-B
Sat 07:14:16 PM 40.4990 -73.8090 180° South 278 320 6,300 -1,500 Descending FlightAware ADS-B
Sat 07:14:40 PM 40.4690 -73.8040 173° South 270 311 5,700 -1,814 Descending FlightAware ADS-B
Sat 07:14:59 PM 40.4460 -73.7990 171° South 267 307 5,000 -2,211 Descending FlightAware ADS-B
Sat 07:15:18 PM 40.4230 -73.7930 169° South 262 302 4,300 -1,610 Descending FlightAware ADS-B
Sat 07:15:40 PM 40.3980 -73.7890 173° South 250 288 3,900 -1,071 Descending FlightAware ADS-B
Sat 07:15:46 PM 40.3890 -73.7920 194° South 247 284 3,800 -800 Descending FlightAware ADS-B
Sat 07:15:55 PM 40.3800 -73.7980 207° Southwest 243 280 3,700 -333 Descending FlightAware ADS-B
Sat 07:16:04 PM 40.3740 -73.8070 229° Southwest 233 268 3,700  Level FlightAware ADS-B
Sat 07:16:08 PM 40.3720 -73.8120 242° Southwest 226 260 3,700  Level FlightAware ADS-B
Sat 07:16:15 PM 40.3690 -73.8210 246° West 215 247 3,700  Level FlightAware ADS-B
Sat 07:16:21 PM 40.3680 -73.8290 261° West 210 242 3,700 -643 Level FlightAware ADS-B
Sat 07:16:43 PM 40.3740 -73.8510 290° West 187 215 3,400 -774 Descending FlightAware ADS-B
Sat 07:16:52 PM 40.3810 -73.8560 331° Northwest 182 209 3,300 -1,059 Descending FlightAware ADS-B
Sat 07:17:00 PM 40.3890 -73.8590 344° North 178 205 3,100 -1,241 Descending FlightAware ADS-B
Sat 07:17:21 PM 40.4060 -73.8620 352° North 180 207 2,700 -1,024 Descending FlightAware ADS-B
Sat 07:17:41 PM 40.4220 -73.8650 352° North 180 207 2,400 -968 Descending FlightAware ADS-B
Sat 07:17:52 PM 40.4310 -73.8660 355° North 181 208 2,200 -857 Descending FlightAware ADS-B
Sat 07:18:16 PM 40.4510 -73.8690 353° North 182 209 1,900 -667 Descending FlightAware ADS-B
Sat 07:18:28 PM 40.4620 -73.8700 356° North 181 208 1,800 -353 Descending FlightAware ADS-B
Sat 07:18:50 PM 40.4800 -73.8720 355° North 180 207 1,700 -120 Descending FlightAware ADS-B
Sat 07:19:18 PM 40.5022 -73.8647 14° North 178 205 1,700  Level FlightAware ADS-B
Sat 07:19:23 PM 40.5062 -73.8624 24° Northeast 178 205 1,700  Level FlightAware ADS-B
Sat 07:20:01 PM 40.5330 -73.8430 29° Northeast 178 205 1,700 -207 Level FlightAware ADS-B
Sat 07:20:21 PM 40.5470 -73.8320 31° Northeast 181 208 1,500 -857 Descending FlightAware ADS-B
Sat 07:20:43 PM 40.5630 -73.8190 32° Northeast 175 201 1,100 -1,000 Descending FlightAware ADS-B
Sat 07:20:57 PM 40.5720 -73.8120 31° Northeast 164 189 900 -833 Descending FlightAware ADS-B
Sat 07:21:19 PM 40.5860 -73.8010 31° Northeast 143 165 600 -714 Descending FlightAware ADS-B
Sat 07:21:39 PM 40.5960 -73.7930 31° Northeast 131 151 400 -600 Descending FlightAware ADS-B
Sat 07:21:59 PM 40.6070 -73.7850 29° Northeast 130 150 200 -600 Descending FlightAware ADS-B
Sat 07:22:19 PM 40.6170 -73.7770 31° Northeast 132 152 -600 Descending FlightAware ADS-B
Sat 07:22:43 PM 40.6300 -73.7670 30° Northeast 127 146  Level FlightAware ADS-B

Login

Don't have an account? Register now (free) for customized features, flight alerts, and more!